createdAt,value
2019-04-11T00:02:27.453Z,11.43
2019-04-11T00:04:59.157Z,11.45
2019-04-11T00:07:30.128Z,14.10
2019-04-11T00:10:00.062Z,14.87
2019-04-11T00:12:30.522Z,12.85
2019-04-11T00:15:00.739Z,12.20
2019-04-11T00:17:30.798Z,12.25
2019-04-11T00:20:00.633Z,13.55
2019-04-11T00:22:30.828Z,11.15
2019-04-11T00:25:01.073Z,11.63
2019-04-11T00:27:30.946Z,14.40
2019-04-11T00:30:01.630Z,12.78
2019-04-11T00:32:31.882Z,12.68
2019-04-11T00:35:01.845Z,12.80
2019-04-11T00:37:32.753Z,13.85
2019-04-11T00:40:03.782Z,11.90
2019-04-11T00:42:36.738Z,13.88
2019-04-11T00:45:10.240Z,13.00
2019-04-11T00:47:40.106Z,12.58
2019-04-11T00:50:10.716Z,13.62
2019-04-11T00:52:41.335Z,11.50
2019-04-11T00:55:11.803Z,12.70
2019-04-11T00:57:41.735Z,12.88
2019-04-11T01:00:13.103Z,13.53
2019-04-11T01:02:44.017Z,11.05
2019-04-11T01:05:15.164Z,11.75
2019-04-11T01:07:45.274Z,14.28
2019-04-11T01:10:16.191Z,11.48
2019-04-11T01:12:46.941Z,12.73
2019-04-11T01:15:19.570Z,12.45
2019-04-11T01:17:49.735Z,13.13
2019-04-11T01:20:19.598Z,13.88
2019-04-11T01:22:50.723Z,12.75
2019-04-11T01:25:22.172Z,11.75
2019-04-11T01:27:52.182Z,16.10
2019-04-11T01:30:25.143Z,11.60
2019-04-11T01:32:56.944Z,12.23
2019-04-11T01:35:26.874Z,14.53
2019-04-11T01:37:57.756Z,10.80
2019-04-11T01:40:27.641Z,11.10
2019-04-11T01:42:57.673Z,15.85
2019-04-11T01:45:27.642Z,15.72
2019-04-11T01:48:12.274Z,14.05
2019-04-11T01:50:43.229Z,12.35
2019-04-11T01:53:13.543Z,12.82
2019-04-11T01:55:45.034Z,13.28
2019-04-11T01:58:16.222Z,12.65
2019-04-11T02:01:04.237Z,11.30
2019-04-11T02:03:45.611Z,13.70
2019-04-11T02:06:15.974Z,13.13
2019-04-11T02:08:47.176Z,13.53
2019-04-11T02:11:17.208Z,14.43
2019-04-11T02:13:48.095Z,12.85
2019-04-11T02:16:19.015Z,14.90
2019-04-11T02:18:52.073Z,15.08
2019-04-11T02:21:22.532Z,13.18
2019-04-11T02:24:03.678Z,13.45
2019-04-11T02:26:35.677Z,15.45
2019-04-11T02:29:08.881Z,12.47
2019-04-11T02:31:42.229Z,14.28
2019-04-11T02:34:13.636Z,14.03
2019-04-11T02:36:44.951Z,13.25
2019-04-11T02:39:19.286Z,13.20
2019-04-11T02:41:50.863Z,17.50
2019-04-11T02:44:46.139Z,12.95
2019-04-11T02:47:04.530Z,13.58
2019-04-11T02:49:27.935Z,14.70
2019-04-11T02:51:58.611Z,13.53
2019-04-11T02:54:30.445Z,12.18
2019-04-11T02:57:02.034Z,12.47
2019-04-11T02:59:32.330Z,14.83
2019-04-11T03:02:04.631Z,17.00
2019-04-11T03:04:39.219Z,13.53
2019-04-11T03:07:12.291Z,14.20
2019-04-11T03:09:44.008Z,12.85
2019-04-11T03:12:16.851Z,13.22
2019-04-11T03:15:05.753Z,16.82
2019-04-11T03:17:22.958Z,13.18
2019-04-11T03:20:02.721Z,15.00
2019-04-11T03:22:24.786Z,15.90
2019-04-11T03:24:55.413Z,15.28
2019-04-11T03:27:28.654Z,13.72
2019-04-11T03:30:00.027Z,16.82
2019-04-11T03:33:17.132Z,13.53
2019-04-11T03:36:00.060Z,14.10
2019-04-11T03:37:58.630Z,13.65
2019-04-11T03:40:29.093Z,13.22
2019-04-11T03:42:56.513Z,17.65
2019-04-11T03:45:33.252Z,17.20
2019-04-11T03:47:57.764Z,13.70
2019-04-11T03:50:18.949Z,14.23
2019-04-11T03:52:51.829Z,14.13
2019-04-11T03:55:23.418Z,13.88
2019-04-11T03:57:56.232Z,15.70
2019-04-11T04:00:31.428Z,15.18
2019-04-11T04:03:00.172Z,16.35
2019-04-11T04:05:34.033Z,13.75
2019-04-11T04:08:04.533Z,14.93
2019-04-11T04:10:36.405Z,15.63
2019-04-11T04:13:13.268Z,15.90
2019-04-11T04:15:59.789Z,15.80
2019-04-11T04:18:23.692Z,15.38
2019-04-11T04:20:59.626Z,13.83
2019-04-11T04:23:38.041Z,19.00
2019-04-11T04:26:10.576Z,15.60
2019-04-11T04:28:41.047Z,15.68
2019-04-11T04:31:11.730Z,17.75
2019-04-11T04:33:42.969Z,14.83
2019-04-11T04:36:13.873Z,14.43
2019-04-11T04:38:46.450Z,15.00
2019-04-11T04:41:29.806Z,15.28
2019-04-11T04:43:50.682Z,16.17
2019-04-11T04:46:36.513Z,16.55
2019-04-11T04:48:53.955Z,14.28
2019-04-11T04:51:24.619Z,16.95
2019-04-11T04:53:57.878Z,16.45
2019-04-11T04:56:32.365Z,13.70
2019-04-11T04:59:05.414Z,17.98
2019-04-11T05:01:37.173Z,15.08
2019-04-11T05:04:08.928Z,15.53
2019-04-11T05:06:46.677Z,15.18
2019-04-11T05:09:17.787Z,17.67
2019-04-11T05:11:50.899Z,15.35
2019-04-11T05:14:21.086Z,20.70
2019-04-11T05:16:52.528Z,16.23
2019-04-11T05:19:23.753Z,14.95
2019-04-11T05:21:57.571Z,16.37
2019-04-11T05:24:30.485Z,19.90
2019-04-11T05:27:00.990Z,21.62
2019-04-11T05:29:31.925Z,15.70
2019-04-11T05:32:05.188Z,20.32
2019-04-11T05:34:35.676Z,18.07
2019-04-11T05:37:11.069Z,19.15
2019-04-11T05:39:42.462Z,17.67
2019-04-11T05:42:15.883Z,20.10
2019-04-11T05:44:48.365Z,17.20
2019-04-11T05:47:25.509Z,19.87
2019-04-11T05:50:01.012Z,20.17
2019-04-11T05:52:34.171Z,16.17
2019-04-11T05:55:12.380Z,19.17
2019-04-11T05:57:44.914Z,17.02
2019-04-11T06:00:19.302Z,21.82
2019-04-11T06:02:51.219Z,18.75
2019-04-11T06:05:24.578Z,21.20
2019-04-11T06:08:05.049Z,15.60
2019-04-11T06:10:42.641Z,21.52
2019-04-11T06:13:18.565Z,18.15
2019-04-11T06:15:59.487Z,22.10
2019-04-11T06:18:43.622Z,20.88
2019-04-11T06:21:15.780Z,18.05
2019-04-11T06:23:47.721Z,19.85
2019-04-11T06:26:21.318Z,17.17
2019-04-11T06:28:55.566Z,21.42
2019-04-11T06:31:43.632Z,19.07
2019-04-11T06:34:13.567Z,20.88
2019-04-11T06:37:01.409Z,23.65
2019-04-11T06:39:35.750Z,21.52
2019-04-11T06:42:07.636Z,20.02
2019-04-11T06:44:39.775Z,23.32
2019-04-11T06:47:12.456Z,17.98
2019-04-11T06:49:50.988Z,17.90
2019-04-11T06:52:20.997Z,17.92
2019-04-11T06:55:02.590Z,17.42
2019-04-11T06:57:34.239Z,20.30
2019-04-11T07:00:07.290Z,17.50
2019-04-11T07:02:41.059Z,16.12
2019-04-11T07:05:14.205Z,18.90
2019-04-11T07:07:51.686Z,25.88
2019-04-11T07:13:00.712Z,21.52
2019-04-11T07:15:32.655Z,18.12
2019-04-11T07:18:20.592Z,18.25
2019-04-11T07:20:52.522Z,17.10
2019-04-11T07:23:40.514Z,15.03
2019-04-11T07:26:14.746Z,18.95
2019-04-11T07:28:46.510Z,19.42
2019-04-11T07:31:21.776Z,20.70
2019-04-11T07:33:53.981Z,19.00
2019-04-11T07:36:41.525Z,20.17
2019-04-11T07:41:45.574Z,16.60
2019-04-11T07:44:17.815Z,16.93
2019-04-11T07:46:51.932Z,18.57
2019-04-11T07:49:35.235Z,18.00
2019-04-11T07:52:09.233Z,16.75
2019-04-11T07:54:41.631Z,18.85
2019-04-11T07:57:23.384Z,18.12
2019-04-11T08:00:09.559Z,18.52
2019-04-11T08:02:57.429Z,16.52
2019-04-11T08:05:38.854Z,16.93
2019-04-11T08:08:15.420Z,16.62
2019-04-11T08:11:02.424Z,17.37
2019-04-11T08:13:34.971Z,15.83
2019-04-11T08:16:22.595Z,18.60
2019-04-11T08:18:54.131Z,17.40
2019-04-11T08:21:26.225Z,17.10
2019-04-11T08:23:58.209Z,18.37
2019-04-11T08:26:48.680Z,16.75
2019-04-11T08:29:20.199Z,20.75
2019-04-11T08:32:07.895Z,15.75
2019-04-11T08:34:41.625Z,15.75
2019-04-11T08:37:23.978Z,18.67
2019-04-11T08:39:57.612Z,16.50
2019-04-11T08:42:50.732Z,17.70
2019-04-11T08:45:23.630Z,19.15
2019-04-11T08:47:58.594Z,14.18
2019-04-11T08:50:30.228Z,15.23
2019-04-11T08:53:20.616Z,18.60
2019-04-11T08:55:56.227Z,16.45
2019-04-11T08:58:26.639Z,16.75
2019-04-11T09:01:00.819Z,22.10
2019-04-11T09:03:59.801Z,16.75
2019-04-11T09:06:32.583Z,14.35
2019-04-11T09:09:15.241Z,17.67
2019-04-11T09:11:50.944Z,21.87
2019-04-11T09:14:28.520Z,16.20
2019-04-11T09:19:38.998Z,16.30
2019-04-11T09:22:15.144Z,16.40
2019-04-11T09:24:46.990Z,16.52
2019-04-11T09:27:24.811Z,20.52
2019-04-11T09:30:12.748Z,17.42
2019-04-11T09:32:43.052Z,17.73
2019-04-11T09:35:33.134Z,16.40
2019-04-11T09:38:08.441Z,15.93
2019-04-11T09:40:41.673Z,18.70
2019-04-11T09:43:13.135Z,14.13
2019-04-11T09:45:57.858Z,17.02
2019-04-11T09:48:40.019Z,14.68
2019-04-11T09:51:18.861Z,14.35
2019-04-11T09:53:54.750Z,16.15
2019-04-11T09:56:45.293Z,13.13
2019-04-11T09:59:33.491Z,12.47
2019-04-11T10:02:11.460Z,12.30
2019-04-11T10:04:43.797Z,14.43
2019-04-11T10:07:28.147Z,15.88
2019-04-11T10:10:05.731Z,14.55
2019-04-11T10:15:49.928Z,15.08
2019-04-11T10:24:50.526Z,13.22
2019-04-11T10:27:26.686Z,12.15
2019-04-11T10:30:04.467Z,15.10
2019-04-11T10:32:39.197Z,11.90
2019-04-11T10:35:14.606Z,12.70
2019-04-11T10:37:49.797Z,12.40
2019-04-11T10:40:37.751Z,13.08
2019-04-11T10:43:11.855Z,12.37
2019-04-11T10:46:02.817Z,15.23
2019-04-11T10:48:47.073Z,11.48
2019-04-11T10:51:35.909Z,13.00
2019-04-11T10:54:11.798Z,12.88
2019-04-11T10:57:01.223Z,13.20
2019-04-11T10:59:36.443Z,12.23
2019-04-11T11:02:17.540Z,14.73
2019-04-11T11:05:01.281Z,12.80
2019-04-11T11:07:37.950Z,15.60
2019-04-11T11:10:15.421Z,12.98
2019-04-11T11:15:37.885Z,10.93
2019-04-11T11:18:48.211Z,12.93
2019-04-11T11:21:07.490Z,11.57
2019-04-11T11:23:42.814Z,12.75
2019-04-11T11:26:26.130Z,14.28
2019-04-11T11:29:15.283Z,11.55
2019-04-11T11:31:52.859Z,13.35
2019-04-11T11:34:26.483Z,12.28
2019-04-11T11:37:31.245Z,9.80
2019-04-11T11:40:14.882Z,12.00
2019-04-11T11:42:56.625Z,11.70
2019-04-11T11:45:29.818Z,11.43
2019-04-11T11:48:02.752Z,11.10
2019-04-11T11:50:37.562Z,10.08
2019-04-11T11:53:26.647Z,13.68
2019-04-11T11:55:58.159Z,9.43
2019-04-11T11:58:35.340Z,9.15
2019-04-11T12:07:17.030Z,10.48
2019-04-11T12:09:57.107Z,8.78
2019-04-11T12:12:30.208Z,10.25
2019-04-11T12:15:22.260Z,9.50
2019-04-11T12:18:08.236Z,9.48
2019-04-11T12:21:00.925Z,11.93
2019-04-11T12:26:48.712Z,13.15
2019-04-11T12:29:24.226Z,10.10
2019-04-11T12:32:00.831Z,10.75
2019-04-11T12:35:08.909Z,9.10
2019-04-11T12:37:52.634Z,12.28
2019-04-11T12:40:46.694Z,11.15
2019-04-11T12:43:21.706Z,11.33
2019-04-11T12:45:58.442Z,12.03
2019-04-11T12:48:30.573Z,10.68
2019-04-11T12:51:18.497Z,8.95
2019-04-11T12:53:52.404Z,10.80
2019-04-11T12:56:26.513Z,12.28
2019-04-11T12:58:59.481Z,10.48
2019-04-11T13:01:31.034Z,10.35
2019-04-11T13:04:08.336Z,9.33
2019-04-11T13:09:34.587Z,10.50
2019-04-11T13:12:09.565Z,10.48
2019-04-11T13:14:57.641Z,9.40
2019-04-11T13:17:31.789Z,12.07
2019-04-11T13:20:06.070Z,11.12
2019-04-11T13:22:35.950Z,8.35
2019-04-11T13:25:28.230Z,9.78
2019-04-11T13:27:59.858Z,10.65
2019-04-11T13:30:35.563Z,10.05
2019-04-11T13:33:05.800Z,8.98
2019-04-11T13:35:53.412Z,8.80
2019-04-11T13:38:24.964Z,8.95
2019-04-11T13:41:13.024Z,11.80
2019-04-11T13:43:49.899Z,11.78
2019-04-11T13:46:26.702Z,12.45
2019-04-11T13:49:04.266Z,11.20
2019-04-11T13:51:36.626Z,10.43
2019-04-11T13:54:25.697Z,10.10
2019-04-11T13:57:13.825Z,10.90
2019-04-11T14:00:01.444Z,12.20
2019-04-11T14:02:32.891Z,12.93
2019-04-11T14:05:11.744Z,12.45
2019-04-11T14:08:09.261Z,11.18
2019-04-11T14:10:44.587Z,10.45
2019-04-11T14:13:17.060Z,11.22
2019-04-11T14:15:48.472Z,14.45
2019-04-11T14:18:20.284Z,13.53
2019-04-11T14:20:54.706Z,16.25
2019-04-11T14:23:26.301Z,12.65
2019-04-11T14:29:15.222Z,10.95
2019-04-11T14:32:07.690Z,18.90
2019-04-11T14:34:44.208Z,10.60
2019-04-11T14:37:41.494Z,11.55
2019-04-11T14:40:29.474Z,10.08
2019-04-11T14:43:20.196Z,10.53
2019-04-11T14:45:54.739Z,10.30
2019-04-11T14:48:47.093Z,12.55
2019-04-11T14:51:37.188Z,10.98
2019-04-11T14:54:12.052Z,11.15
2019-04-11T14:56:53.021Z,13.00
2019-04-11T14:59:29.324Z,11.18
2019-04-11T15:02:02.984Z,11.60
2019-04-11T15:04:44.026Z,13.08
2019-04-11T15:07:16.322Z,13.50
2019-04-11T15:09:59.607Z,12.43
2019-04-11T15:12:34.450Z,14.40
2019-04-11T15:15:25.084Z,11.68
2019-04-11T15:17:56.582Z,12.63
2019-04-11T15:20:54.739Z,12.05
2019-04-11T15:23:21.108Z,12.37
2019-04-11T15:26:08.832Z,15.72
2019-04-11T15:28:52.442Z,10.43
2019-04-11T15:31:24.712Z,12.80
2019-04-11T15:34:05.250Z,11.95
2019-04-11T15:36:40.435Z,10.18
2019-04-11T15:39:28.814Z,13.70
2019-04-11T15:42:02.363Z,12.00
2019-04-11T15:44:41.843Z,13.88
2019-04-11T15:47:13.563Z,12.33
2019-04-11T15:49:50.493Z,10.88
2019-04-11T15:52:21.138Z,11.38
2019-04-11T15:55:09.079Z,11.05
2019-04-11T15:57:43.002Z,9.08
2019-04-11T16:00:20.286Z,14.25
2019-04-11T16:03:11.586Z,12.00
2019-04-11T16:05:56.579Z,13.00
2019-04-11T16:08:34.010Z,10.15
2019-04-11T16:11:23.211Z,11.73
2019-04-11T16:13:56.153Z,14.68
2019-04-11T16:16:30.234Z,13.85
2019-04-11T16:19:10.693Z,14.45
2019-04-11T16:21:45.496Z,12.43
2019-04-11T16:24:19.173Z,12.65
2019-04-11T16:27:08.904Z,10.93
2019-04-11T16:29:56.411Z,12.05
2019-04-11T16:32:29.951Z,14.03
2019-04-11T16:35:03.084Z,11.25
2019-04-11T16:37:37.114Z,10.93
2019-04-11T16:40:28.292Z,15.70
2019-04-11T16:43:10.163Z,13.15
2019-04-11T16:45:48.106Z,12.28
2019-04-11T16:48:18.262Z,12.07
2019-04-11T16:50:51.030Z,13.35
2019-04-11T16:53:23.691Z,11.08
2019-04-11T16:55:58.520Z,15.32
2019-04-11T16:58:30.771Z,14.60
2019-04-11T17:01:01.931Z,14.45
2019-04-11T17:03:31.974Z,15.35
2019-04-11T17:06:05.499Z,13.38
2019-04-11T17:08:39.694Z,13.15
2019-04-11T17:11:11.120Z,14.10
2019-04-11T17:13:42.024Z,14.03
2019-04-11T17:16:14.727Z,13.08
2019-04-11T17:18:44.660Z,12.78
2019-04-11T17:21:16.675Z,14.60
2019-04-11T17:23:47.723Z,15.08
2019-04-11T17:26:17.743Z,11.95
2019-04-11T17:28:47.656Z,13.83
2019-04-11T17:31:17.495Z,13.20
2019-04-11T17:33:48.199Z,14.10
2019-04-11T17:36:18.041Z,14.35
2019-04-11T17:38:48.351Z,13.70
2019-04-11T17:41:18.337Z,14.47
2019-04-11T17:43:51.635Z,13.55
2019-04-11T17:46:26.778Z,16.17
2019-04-11T17:48:55.776Z,16.15
2019-04-11T17:51:27.037Z,14.78
2019-04-11T17:54:01.329Z,16.97
2019-04-11T17:56:33.224Z,15.05
2019-04-11T17:59:04.532Z,15.45
2019-04-11T18:01:37.835Z,17.52
2019-04-11T18:04:08.886Z,18.30
2019-04-11T18:06:39.519Z,19.50
2019-04-11T18:09:12.102Z,13.05
2019-04-11T18:11:43.138Z,14.25
2019-04-11T18:14:12.899Z,15.40
2019-04-11T18:16:42.803Z,16.48
2019-04-11T18:19:15.265Z,16.07
2019-04-11T18:21:45.103Z,15.78
2019-04-11T18:24:15.012Z,18.02
2019-04-11T18:26:46.507Z,16.60
2019-04-11T18:29:18.024Z,17.98
2019-04-11T18:31:52.033Z,13.65
2019-04-11T18:34:22.231Z,15.70
2019-04-11T18:36:52.424Z,14.15
2019-04-11T18:39:25.163Z,13.60
2019-04-11T18:41:57.662Z,15.95
2019-04-11T18:44:27.166Z,14.28
2019-04-11T18:46:57.744Z,15.68
2019-04-11T18:49:29.136Z,14.45
2019-04-11T18:52:01.542Z,14.00
2019-04-11T18:54:35.942Z,14.45
2019-04-11T18:57:24.461Z,14.20
2019-04-11T19:05:36.809Z,15.70
2019-04-11T19:22:40.890Z,15.25
2019-04-11T19:34:04.400Z,15.23
2019-04-11T19:36:42.378Z,14.55
2019-04-11T19:39:14.832Z,16.55
2019-04-11T19:41:48.649Z,15.70
2019-04-11T19:44:23.927Z,13.58
2019-04-11T19:46:56.513Z,14.90
2019-04-11T19:49:28.803Z,21.27
2019-04-11T19:52:00.651Z,14.93
2019-04-11T19:54:38.198Z,13.90
2019-04-11T19:57:09.997Z,12.70
2019-04-11T19:59:42.917Z,19.25
2019-04-11T20:02:17.230Z,18.10
2019-04-11T20:04:48.936Z,15.23
2019-04-11T20:07:20.824Z,16.40
2019-04-11T20:09:52.360Z,15.55
2019-04-11T20:12:27.779Z,12.95
2019-04-11T20:14:59.298Z,14.47
2019-04-11T20:17:43.466Z,14.83
2019-04-11T20:20:07.083Z,14.70
2019-04-11T20:22:39.782Z,13.75
2019-04-11T20:25:09.230Z,18.27
2019-04-11T20:27:39.354Z,16.93
2019-04-11T20:30:19.735Z,13.95
2019-04-11T20:32:52.005Z,14.33
2019-04-11T20:35:29.165Z,17.15
2019-04-11T20:38:00.742Z,17.50
2019-04-11T20:40:41.474Z,17.82
2019-04-11T20:43:16.543Z,15.30
2019-04-11T20:45:49.539Z,16.60
2019-04-11T20:48:22.166Z,13.83
2019-04-11T20:50:53.530Z,16.25
2019-04-11T20:56:23.591Z,14.50
2019-04-11T20:58:47.566Z,14.93
2019-04-11T21:01:18.566Z,14.28
2019-04-11T21:03:49.031Z,15.75
2019-04-11T21:06:18.988Z,16.90
2019-04-11T21:08:50.182Z,14.73
2019-04-11T21:11:25.400Z,16.48
2019-04-11T21:23:06.541Z,17.30
2019-04-11T21:28:47.639Z,16.42
2019-04-11T21:37:24.303Z,17.52
2019-04-11T21:40:05.221Z,20.10
2019-04-11T21:42:43.781Z,17.02
2019-04-11T21:51:12.908Z,16.87
2019-04-11T21:53:53.483Z,16.90
2019-04-11T21:56:32.462Z,19.17
2019-04-11T21:59:44.068Z,20.15
2019-04-11T22:08:27.107Z,16.90
2019-04-11T22:11:03.002Z,22.45
2019-04-11T22:13:33.428Z,19.27
2019-04-11T22:16:14.211Z,18.80
2019-04-11T22:18:53.447Z,15.00
2019-04-11T22:24:27.528Z,19.62
2019-04-11T22:27:05.053Z,15.48
2019-04-11T22:29:42.796Z,16.30
2019-04-11T22:32:20.571Z,15.05
2019-04-11T22:34:56.760Z,21.55
2019-04-11T22:37:41.809Z,21.05
2019-04-11T22:40:15.187Z,19.98
2019-04-11T22:42:49.238Z,19.95
2019-04-11T22:45:20.369Z,16.80
2019-04-11T22:48:00.511Z,20.02
2019-04-11T22:50:34.920Z,25.10
2019-04-11T22:53:20.182Z,20.12
2019-04-11T22:55:55.991Z,22.48
2019-04-11T22:58:27.665Z,20.45
2019-04-11T23:01:03.049Z,20.00
2019-04-11T23:03:38.824Z,18.92
2019-04-11T23:06:10.436Z,22.22
2019-04-11T23:08:40.468Z,16.20
2019-04-11T23:11:10.639Z,19.05
2019-04-11T23:13:40.537Z,21.45
2019-04-11T23:16:12.056Z,28.55
2019-04-11T23:18:44.208Z,24.65
2019-04-11T23:21:16.503Z,20.70
2019-04-11T23:23:47.230Z,20.27
2019-04-11T23:26:18.607Z,19.52
2019-04-11T23:28:48.618Z,18.15
2019-04-11T23:31:20.264Z,18.87
2019-04-11T23:33:52.019Z,19.57
2019-04-11T23:36:22.052Z,21.02
2019-04-11T23:38:52.977Z,15.70
2019-04-11T23:41:23.676Z,20.82
2019-04-11T23:43:54.239Z,22.40
2019-04-11T23:46:25.643Z,20.45
2019-04-11T23:48:57.026Z,24.32
2019-04-11T23:51:28.323Z,16.62
2019-04-11T23:53:59.766Z,21.17
2019-04-11T23:56:30.697Z,20.17
2019-04-11T23:59:02.158Z,18.25
